sensor_id;sensor_type;location;lat;lon;timestamp;P1;durP1;ratioP1;P2;durP2;ratioP2
67979;SDS011;54760;47.490;19.030;2024-03-17T00:00:41;1.35;;;0.93;;
67979;SDS011;54760;47.490;19.030;2024-03-17T00:03:07;1.73;;;1.00;;
67979;SDS011;54760;47.490;19.030;2024-03-17T00:05:36;1.48;;;1.00;;
67979;SDS011;54760;47.490;19.030;2024-03-17T00:08:03;2.25;;;1.17;;
67979;SDS011;54760;47.490;19.030;2024-03-17T00:10:32;2.40;;;1.17;;
67979;SDS011;54760;47.490;19.030;2024-03-17T00:12:57;1.85;;;1.00;;
67979;SDS011;54760;47.490;19.030;2024-03-17T00:15:23;1.25;;;1.00;;
67979;SDS011;54760;47.490;19.030;2024-03-17T00:17:48;3.62;;;1.20;;
67979;SDS011;54760;47.490;19.030;2024-03-17T00:20:14;2.15;;;1.05;;
67979;SDS011;54760;47.490;19.030;2024-03-17T00:22:48;1.25;;;0.95;;
67979;SDS011;54760;47.490;19.030;2024-03-17T00:25:14;1.40;;;0.90;;
67979;SDS011;54760;47.490;19.030;2024-03-17T00:27:40;1.90;;;1.00;;
67979;SDS011;54760;47.490;19.030;2024-03-17T00:30:08;4.18;;;1.10;;
67979;SDS011;54760;47.490;19.030;2024-03-17T00:32:37;1.80;;;1.00;;
67979;SDS011;54760;47.490;19.030;2024-03-17T00:35:06;1.35;;;0.95;;
67979;SDS011;54760;47.490;19.030;2024-03-17T00:37:32;1.35;;;1.00;;
67979;SDS011;54760;47.490;19.030;2024-03-17T00:39:59;2.87;;;0.95;;
67979;SDS011;54760;47.490;19.030;2024-03-17T00:42:26;1.42;;;1.00;;
67979;SDS011;54760;47.490;19.030;2024-03-17T00:44:52;1.45;;;1.00;;
67979;SDS011;54760;47.490;19.030;2024-03-17T00:47:17;3.70;;;1.10;;
67979;SDS011;54760;47.490;19.030;2024-03-17T00:49:42;2.37;;;1.15;;
67979;SDS011;54760;47.490;19.030;2024-03-17T00:52:08;1.70;;;1.02;;
67979;SDS011;54760;47.490;19.030;2024-03-17T00:54:33;1.62;;;1.27;;
67979;SDS011;54760;47.490;19.030;2024-03-17T00:56:59;1.52;;;1.23;;
67979;SDS011;54760;47.490;19.030;2024-03-17T00:59:24;2.47;;;1.30;;
67979;SDS011;54760;47.490;19.030;2024-03-17T01:01:50;1.73;;;1.25;;
67979;SDS011;54760;47.490;19.030;2024-03-17T01:04:15;1.42;;;1.20;;
67979;SDS011;54760;47.490;19.030;2024-03-17T01:06:41;2.53;;;1.37;;
67979;SDS011;54760;47.490;19.030;2024-03-17T01:09:06;2.47;;;1.30;;
67979;SDS011;54760;47.490;19.030;2024-03-17T01:11:33;2.20;;;1.55;;
67979;SDS011;54760;47.490;19.030;2024-03-17T01:13:59;3.45;;;1.70;;
67979;SDS011;54760;47.490;19.030;2024-03-17T01:16:24;1.83;;;1.25;;
67979;SDS011;54760;47.490;19.030;2024-03-17T01:18:50;5.40;;;1.80;;
67979;SDS011;54760;47.490;19.030;2024-03-17T01:21:15;2.70;;;1.70;;
67979;SDS011;54760;47.490;19.030;2024-03-17T01:23:40;2.00;;;1.50;;
67979;SDS011;54760;47.490;19.030;2024-03-17T01:26:06;2.40;;;1.27;;
67979;SDS011;54760;47.490;19.030;2024-03-17T01:28:31;1.80;;;1.40;;
67979;SDS011;54760;47.490;19.030;2024-03-17T01:30:57;3.40;;;1.60;;
67979;SDS011;54760;47.490;19.030;2024-03-17T01:33:22;1.87;;;1.55;;
67979;SDS011;54760;47.490;19.030;2024-03-17T01:35:48;3.20;;;2.00;;
67979;SDS011;54760;47.490;19.030;2024-03-17T01:38:13;3.37;;;1.55;;
67979;SDS011;54760;47.490;19.030;2024-03-17T01:40:39;2.80;;;1.58;;
67979;SDS011;54760;47.490;19.030;2024-03-17T01:43:05;2.10;;;1.52;;
67979;SDS011;54760;47.490;19.030;2024-03-17T01:45:34;2.85;;;1.62;;
67979;SDS011;54760;47.490;19.030;2024-03-17T01:48:01;2.50;;;1.60;;
67979;SDS011;54760;47.490;19.030;2024-03-17T01:50:37;2.12;;;1.50;;
67979;SDS011;54760;47.490;19.030;2024-03-17T01:53:04;2.20;;;1.73;;
67979;SDS011;54760;47.490;19.030;2024-03-17T01:55:34;1.77;;;1.45;;
67979;SDS011;54760;47.490;19.030;2024-03-17T01:58:02;3.87;;;1.62;;
67979;SDS011;54760;47.490;19.030;2024-03-17T02:00:28;2.42;;;1.80;;
67979;SDS011;54760;47.490;19.030;2024-03-17T02:02:56;2.22;;;1.60;;
67979;SDS011;54760;47.490;19.030;2024-03-17T02:05:21;2.85;;;2.08;;
67979;SDS011;54760;47.490;19.030;2024-03-17T02:07:47;2.53;;;1.80;;
67979;SDS011;54760;47.490;19.030;2024-03-17T02:10:13;2.25;;;1.80;;
67979;SDS011;54760;47.490;19.030;2024-03-17T02:12:39;2.87;;;1.87;;
67979;SDS011;54760;47.490;19.030;2024-03-17T02:15:05;2.83;;;2.20;;
67979;SDS011;54760;47.490;19.030;2024-03-17T02:17:32;3.15;;;1.77;;
67979;SDS011;54760;47.490;19.030;2024-03-17T02:19:58;2.05;;;1.67;;
67979;SDS011;54760;47.490;19.030;2024-03-17T02:22:24;2.53;;;2.08;;
67979;SDS011;54760;47.490;19.030;2024-03-17T02:24:50;2.75;;;1.70;;
67979;SDS011;54760;47.490;19.030;2024-03-17T02:27:16;2.53;;;2.00;;
67979;SDS011;54760;47.490;19.030;2024-03-17T02:29:41;2.70;;;2.22;;
67979;SDS011;54760;47.490;19.030;2024-03-17T02:32:07;2.12;;;1.90;;
67979;SDS011;54760;47.490;19.030;2024-03-17T02:34:33;2.60;;;2.10;;
67979;SDS011;54760;47.490;19.030;2024-03-17T02:36:59;2.37;;;2.05;;
67979;SDS011;54760;47.490;19.030;2024-03-17T02:39:25;1.85;;;1.70;;
67979;SDS011;54760;47.490;19.030;2024-03-17T02:42:06;2.85;;;2.20;;
67979;SDS011;54760;47.490;19.030;2024-03-17T02:44:33;2.90;;;1.70;;
67979;SDS011;54760;47.490;19.030;2024-03-17T02:47:00;4.32;;;2.28;;
67979;SDS011;54760;47.490;19.030;2024-03-17T02:49:27;2.58;;;1.67;;
67979;SDS011;54760;47.490;19.030;2024-03-17T02:52:00;2.67;;;1.85;;
67979;SDS011;54760;47.490;19.030;2024-03-17T02:54:26;2.30;;;1.87;;
67979;SDS011;54760;47.490;19.030;2024-03-17T02:56:51;2.55;;;1.92;;
67979;SDS011;54760;47.490;19.030;2024-03-17T02:59:17;2.78;;;1.80;;
67979;SDS011;54760;47.490;19.030;2024-03-17T03:01:44;2.80;;;1.90;;
67979;SDS011;54760;47.490;19.030;2024-03-17T03:04:10;2.70;;;2.00;;
67979;SDS011;54760;47.490;19.030;2024-03-17T03:06:36;2.75;;;1.98;;
67979;SDS011;54760;47.490;19.030;2024-03-17T03:09:01;2.30;;;1.70;;
67979;SDS011;54760;47.490;19.030;2024-03-17T03:11:27;3.58;;;1.98;;
67979;SDS011;54760;47.490;19.030;2024-03-17T03:13:52;2.70;;;1.75;;
67979;SDS011;54760;47.490;19.030;2024-03-17T03:16:17;3.78;;;1.70;;
67979;SDS011;54760;47.490;19.030;2024-03-17T03:18:44;2.65;;;1.80;;
67979;SDS011;54760;47.490;19.030;2024-03-17T03:21:10;2.33;;;1.50;;
67979;SDS011;54760;47.490;19.030;2024-03-17T03:23:36;3.60;;;1.55;;
67979;SDS011;54760;47.490;19.030;2024-03-17T03:26:02;2.33;;;1.70;;
67979;SDS011;54760;47.490;19.030;2024-03-17T03:28:29;2.75;;;1.60;;
67979;SDS011;54760;47.490;19.030;2024-03-17T03:30:56;2.40;;;1.70;;
67979;SDS011;54760;47.490;19.030;2024-03-17T03:33:21;2.17;;;1.50;;
67979;SDS011;54760;47.490;19.030;2024-03-17T03:35:47;2.37;;;1.60;;
67979;SDS011;54760;47.490;19.030;2024-03-17T03:38:13;2.55;;;1.70;;
67979;SDS011;54760;47.490;19.030;2024-03-17T03:40:40;2.00;;;1.80;;
67979;SDS011;54760;47.490;19.030;2024-03-17T03:43:07;3.58;;;1.70;;
67979;SDS011;54760;47.490;19.030;2024-03-17T03:45:33;1.80;;;1.40;;
67979;SDS011;54760;47.490;19.030;2024-03-17T03:48:00;2.10;;;1.50;;
67979;SDS011;54760;47.490;19.030;2024-03-17T03:50:25;2.20;;;1.70;;
67979;SDS011;54760;47.490;19.030;2024-03-17T03:52:50;3.78;;;1.80;;
67979;SDS011;54760;47.490;19.030;2024-03-17T03:55:16;3.90;;;1.73;;
67979;SDS011;54760;47.490;19.030;2024-03-17T03:57:44;2.45;;;1.70;;
67979;SDS011;54760;47.490;19.030;2024-03-17T04:00:20;2.90;;;1.80;;
67979;SDS011;54760;47.490;19.030;2024-03-17T04:02:49;3.17;;;1.70;;
67979;SDS011;54760;47.490;19.030;2024-03-17T04:05:16;2.28;;;1.70;;
67979;SDS011;54760;47.490;19.030;2024-03-17T04:07:43;2.58;;;1.85;;
67979;SDS011;54760;47.490;19.030;2024-03-17T04:10:11;2.90;;;2.28;;
67979;SDS011;54760;47.490;19.030;2024-03-17T04:12:37;2.47;;;2.03;;
67979;SDS011;54760;47.490;19.030;2024-03-17T04:15:03;2.45;;;1.98;;
67979;SDS011;54760;47.490;19.030;2024-03-17T04:17:31;3.22;;;2.03;;
67979;SDS011;54760;47.490;19.030;2024-03-17T04:19:57;3.97;;;2.10;;
67979;SDS011;54760;47.490;19.030;2024-03-17T04:22:23;3.12;;;1.77;;
67979;SDS011;54760;47.490;19.030;2024-03-17T04:24:49;2.72;;;2.08;;
67979;SDS011;54760;47.490;19.030;2024-03-17T04:27:24;2.65;;;2.00;;
67979;SDS011;54760;47.490;19.030;2024-03-17T04:29:51;2.58;;;1.87;;
67979;SDS011;54760;47.490;19.030;2024-03-17T04:32:18;2.78;;;2.12;;
67979;SDS011;54760;47.490;19.030;2024-03-17T04:34:44;2.47;;;1.90;;
67979;SDS011;54760;47.490;19.030;2024-03-17T04:37:10;2.50;;;1.60;;
67979;SDS011;54760;47.490;19.030;2024-03-17T04:39:44;3.83;;;1.87;;
67979;SDS011;54760;47.490;19.030;2024-03-17T04:42:14;2.87;;;1.90;;
67979;SDS011;54760;47.490;19.030;2024-03-17T04:44:41;2.78;;;1.92;;
67979;SDS011;54760;47.490;19.030;2024-03-17T04:47:07;4.87;;;2.60;;
67979;SDS011;54760;47.490;19.030;2024-03-17T04:49:37;3.25;;;1.90;;
67979;SDS011;54760;47.490;19.030;2024-03-17T04:52:03;2.75;;;2.10;;
67979;SDS011;54760;47.490;19.030;2024-03-17T04:54:30;2.58;;;2.00;;
67979;SDS011;54760;47.490;19.030;2024-03-17T04:56:56;2.83;;;2.10;;
67979;SDS011;54760;47.490;19.030;2024-03-17T04:59:21;2.90;;;2.20;;
67979;SDS011;54760;47.490;19.030;2024-03-17T05:01:47;3.47;;;2.45;;
67979;SDS011;54760;47.490;19.030;2024-03-17T05:04:13;3.30;;;2.28;;
67979;SDS011;54760;47.490;19.030;2024-03-17T05:06:39;2.72;;;1.95;;
67979;SDS011;54760;47.490;19.030;2024-03-17T05:09:07;4.70;;;1.90;;
67979;SDS011;54760;47.490;19.030;2024-03-17T05:11:32;2.37;;;1.90;;
67979;SDS011;54760;47.490;19.030;2024-03-17T05:14:00;2.75;;;1.90;;
67979;SDS011;54760;47.490;19.030;2024-03-17T05:16:25;2.45;;;2.10;;
67979;SDS011;54760;47.490;19.030;2024-03-17T05:18:54;2.17;;;1.70;;
67979;SDS011;54760;47.490;19.030;2024-03-17T05:21:19;3.62;;;1.80;;
67979;SDS011;54760;47.490;19.030;2024-03-17T05:23:47;2.67;;;1.65;;
67979;SDS011;54760;47.490;19.030;2024-03-17T05:26:13;2.58;;;1.85;;
67979;SDS011;54760;47.490;19.030;2024-03-17T05:28:39;2.53;;;1.80;;
67979;SDS011;54760;47.490;19.030;2024-03-17T05:31:04;2.12;;;1.70;;
67979;SDS011;54760;47.490;19.030;2024-03-17T05:33:30;2.33;;;1.87;;
67979;SDS011;54760;47.490;19.030;2024-03-17T05:35:59;3.28;;;1.92;;
67979;SDS011;54760;47.490;19.030;2024-03-17T05:38:27;4.28;;;2.08;;
67979;SDS011;54760;47.490;19.030;2024-03-17T05:40:55;4.53;;;2.47;;
67979;SDS011;54760;47.490;19.030;2024-03-17T05:43:21;2.62;;;1.83;;
67979;SDS011;54760;47.490;19.030;2024-03-17T05:45:49;3.30;;;2.00;;
67979;SDS011;54760;47.490;19.030;2024-03-17T05:48:15;2.95;;;1.80;;
67979;SDS011;54760;47.490;19.030;2024-03-17T05:50:40;3.97;;;1.80;;
67979;SDS011;54760;47.490;19.030;2024-03-17T05:53:06;4.25;;;1.70;;
67979;SDS011;54760;47.490;19.030;2024-03-17T05:55:34;2.67;;;1.90;;
67979;SDS011;54760;47.490;19.030;2024-03-17T05:58:01;3.35;;;2.10;;
67979;SDS011;54760;47.490;19.030;2024-03-17T06:00:26;2.33;;;1.67;;
67979;SDS011;54760;47.490;19.030;2024-03-17T06:02:52;3.87;;;2.10;;
67979;SDS011;54760;47.490;19.030;2024-03-17T06:05:17;3.17;;;1.80;;
67979;SDS011;54760;47.490;19.030;2024-03-17T06:07:43;5.18;;;2.00;;
67979;SDS011;54760;47.490;19.030;2024-03-17T06:10:08;4.15;;;1.70;;
67979;SDS011;54760;47.490;19.030;2024-03-17T06:12:34;3.35;;;2.00;;
67979;SDS011;54760;47.490;19.030;2024-03-17T06:14:59;2.95;;;1.90;;
67979;SDS011;54760;47.490;19.030;2024-03-17T06:17:27;4.93;;;2.03;;
67979;SDS011;54760;47.490;19.030;2024-03-17T06:19:52;3.25;;;1.90;;
67979;SDS011;54760;47.490;19.030;2024-03-17T06:22:18;3.28;;;2.03;;
67979;SDS011;54760;47.490;19.030;2024-03-17T06:24:43;2.90;;;2.17;;
67979;SDS011;54760;47.490;19.030;2024-03-17T06:27:08;4.93;;;2.10;;
67979;SDS011;54760;47.490;19.030;2024-03-17T06:29:34;3.97;;;1.98;;
67979;SDS011;54760;47.490;19.030;2024-03-17T06:31:59;2.53;;;1.62;;
67979;SDS011;54760;47.490;19.030;2024-03-17T06:34:25;3.62;;;1.60;;
67979;SDS011;54760;47.490;19.030;2024-03-17T06:36:51;3.83;;;1.70;;
67979;SDS011;54760;47.490;19.030;2024-03-17T06:39:16;2.40;;;1.60;;
67979;SDS011;54760;47.490;19.030;2024-03-17T06:41:46;2.87;;;1.60;;
67979;SDS011;54760;47.490;19.030;2024-03-17T06:44:11;3.12;;;1.50;;
67979;SDS011;54760;47.490;19.030;2024-03-17T06:46:37;2.85;;;1.70;;
67979;SDS011;54760;47.490;19.030;2024-03-17T06:49:02;5.07;;;1.80;;
67979;SDS011;54760;47.490;19.030;2024-03-17T06:51:27;6.22;;;2.03;;
67979;SDS011;54760;47.490;19.030;2024-03-17T06:53:53;2.70;;;1.73;;
67979;SDS011;54760;47.490;19.030;2024-03-17T06:56:18;3.72;;;1.83;;
67979;SDS011;54760;47.490;19.030;2024-03-17T06:58:44;3.22;;;1.90;;
67979;SDS011;54760;47.490;19.030;2024-03-17T07:01:09;3.83;;;2.00;;
67979;SDS011;54760;47.490;19.030;2024-03-17T07:03:34;3.92;;;2.12;;
67979;SDS011;54760;47.490;19.030;2024-03-17T07:06:00;4.03;;;1.65;;
67979;SDS011;54760;47.490;19.030;2024-03-17T07:08:30;4.65;;;1.70;;
67979;SDS011;54760;47.490;19.030;2024-03-17T07:11:00;3.78;;;1.83;;
67979;SDS011;54760;47.490;19.030;2024-03-17T07:13:28;4.55;;;1.70;;
67979;SDS011;54760;47.490;19.030;2024-03-17T07:15:55;4.43;;;1.50;;
67979;SDS011;54760;47.490;19.030;2024-03-17T07:18:20;3.08;;;1.90;;
67979;SDS011;54760;47.490;19.030;2024-03-17T07:20:45;2.50;;;1.55;;
67979;SDS011;54760;47.490;19.030;2024-03-17T07:23:13;2.75;;;1.52;;
67979;SDS011;54760;47.490;19.030;2024-03-17T07:25:39;2.67;;;1.70;;
67979;SDS011;54760;47.490;19.030;2024-03-17T07:28:05;2.90;;;1.60;;
67979;SDS011;54760;47.490;19.030;2024-03-17T07:30:30;3.65;;;1.85;;
67979;SDS011;54760;47.490;19.030;2024-03-17T07:32:55;2.90;;;1.60;;
67979;SDS011;54760;47.490;19.030;2024-03-17T07:35:21;2.80;;;1.45;;
67979;SDS011;54760;47.490;19.030;2024-03-17T07:37:47;3.47;;;1.70;;
67979;SDS011;54760;47.490;19.030;2024-03-17T07:40:12;2.28;;;1.45;;
67979;SDS011;54760;47.490;19.030;2024-03-17T07:42:38;6.03;;;1.70;;
67979;SDS011;54760;47.490;19.030;2024-03-17T07:45:04;5.53;;;2.42;;
67979;SDS011;54760;47.490;19.030;2024-03-17T07:47:29;3.47;;;1.80;;
67979;SDS011;54760;47.490;19.030;2024-03-17T07:50:02;5.82;;;2.03;;
67979;SDS011;54760;47.490;19.030;2024-03-17T07:52:30;6.22;;;1.83;;
67979;SDS011;54760;47.490;19.030;2024-03-17T07:54:56;4.95;;;1.60;;
67979;SDS011;54760;47.490;19.030;2024-03-17T07:57:21;2.80;;;1.60;;
67979;SDS011;54760;47.490;19.030;2024-03-17T07:59:49;3.08;;;1.90;;
67979;SDS011;54760;47.490;19.030;2024-03-17T08:02:16;4.18;;;1.75;;
67979;SDS011;54760;47.490;19.030;2024-03-17T08:04:41;3.05;;;1.70;;
67979;SDS011;54760;47.490;19.030;2024-03-17T08:07:07;2.97;;;1.55;;
67979;SDS011;54760;47.490;19.030;2024-03-17T08:09:33;5.82;;;2.12;;
67979;SDS011;54760;47.490;19.030;2024-03-17T08:11:58;4.05;;;1.48;;
67979;SDS011;54760;47.490;19.030;2024-03-17T08:14:23;3.10;;;1.60;;
67979;SDS011;54760;47.490;19.030;2024-03-17T08:16:49;5.35;;;1.70;;
67979;SDS011;54760;47.490;19.030;2024-03-17T08:19:14;5.05;;;1.80;;
67979;SDS011;54760;47.490;19.030;2024-03-17T08:21:40;3.67;;;1.60;;
67979;SDS011;54760;47.490;19.030;2024-03-17T08:24:06;2.72;;;1.50;;
67979;SDS011;54760;47.490;19.030;2024-03-17T08:26:32;2.95;;;1.67;;
67979;SDS011;54760;47.490;19.030;2024-03-17T08:28:57;6.55;;;1.73;;
67979;SDS011;54760;47.490;19.030;2024-03-17T08:31:23;3.80;;;1.70;;
67979;SDS011;54760;47.490;19.030;2024-03-17T08:33:48;3.45;;;1.58;;
67979;SDS011;54760;47.490;19.030;2024-03-17T08:36:15;3.72;;;1.60;;
67979;SDS011;54760;47.490;19.030;2024-03-17T08:38:43;3.33;;;1.45;;
67979;SDS011;54760;47.490;19.030;2024-03-17T08:41:08;3.75;;;1.80;;
67979;SDS011;54760;47.490;19.030;2024-03-17T08:43:35;2.92;;;1.40;;
67979;SDS011;54760;47.490;19.030;2024-03-17T08:46:05;3.75;;;1.25;;
67979;SDS011;54760;47.490;19.030;2024-03-17T08:48:36;4.65;;;1.80;;
67979;SDS011;54760;47.490;19.030;2024-03-17T08:51:04;2.55;;;1.60;;
67979;SDS011;54760;47.490;19.030;2024-03-17T08:53:31;3.25;;;1.55;;
67979;SDS011;54760;47.490;19.030;2024-03-17T08:55:57;5.43;;;2.08;;
67979;SDS011;54760;47.490;19.030;2024-03-17T08:58:23;5.07;;;1.85;;
67979;SDS011;54760;47.490;19.030;2024-03-17T09:00:49;2.17;;;1.30;;
67979;SDS011;54760;47.490;19.030;2024-03-17T09:03:16;3.72;;;1.52;;
67979;SDS011;54760;47.490;19.030;2024-03-17T09:05:42;3.75;;;1.75;;
67979;SDS011;54760;47.490;19.030;2024-03-17T09:08:19;2.65;;;1.40;;
67979;SDS011;54760;47.490;19.030;2024-03-17T09:10:48;4.00;;;1.65;;
67979;SDS011;54760;47.490;19.030;2024-03-17T09:13:16;3.58;;;1.58;;
67979;SDS011;54760;47.490;19.030;2024-03-17T09:15:53;4.75;;;1.55;;
67979;SDS011;54760;47.490;19.030;2024-03-17T09:18:22;4.43;;;1.65;;
67979;SDS011;54760;47.490;19.030;2024-03-17T09:20:55;2.92;;;1.50;;
67979;SDS011;54760;47.490;19.030;2024-03-17T09:23:24;3.42;;;1.27;;
67979;SDS011;54760;47.490;19.030;2024-03-17T09:28:23;6.32;;;1.77;;
67979;SDS011;54760;47.490;19.030;2024-03-17T09:30:48;3.58;;;1.60;;
67979;SDS011;54760;47.490;19.030;2024-03-17T09:33:14;2.85;;;1.50;;
67979;SDS011;54760;47.490;19.030;2024-03-17T09:35:40;4.95;;;1.60;;
67979;SDS011;54760;47.490;19.030;2024-03-17T09:38:05;3.45;;;1.27;;
67979;SDS011;54760;47.490;19.030;2024-03-17T09:40:31;3.45;;;1.62;;
67979;SDS011;54760;47.490;19.030;2024-03-17T09:42:56;3.20;;;1.40;;
67979;SDS011;54760;47.490;19.030;2024-03-17T09:45:23;7.35;;;1.58;;
67979;SDS011;54760;47.490;19.030;2024-03-17T09:47:49;8.52;;;1.42;;
67979;SDS011;54760;47.490;19.030;2024-03-17T09:50:16;6.40;;;1.67;;
67979;SDS011;54760;47.490;19.030;2024-03-17T09:52:44;3.50;;;1.65;;
67979;SDS011;54760;47.490;19.030;2024-03-17T09:55:19;5.95;;;1.42;;
67979;SDS011;54760;47.490;19.030;2024-03-17T09:57:45;2.45;;;1.33;;
67979;SDS011;54760;47.490;19.030;2024-03-17T10:00:13;3.03;;;1.45;;
67979;SDS011;54760;47.490;19.030;2024-03-17T10:05:22;2.83;;;1.40;;
67979;SDS011;54760;47.490;19.030;2024-03-17T10:07:49;4.12;;;1.37;;
67979;SDS011;54760;47.490;19.030;2024-03-17T10:10:16;2.67;;;1.40;;
67979;SDS011;54760;47.490;19.030;2024-03-17T10:12:42;3.87;;;1.35;;
67979;SDS011;54760;47.490;19.030;2024-03-17T10:15:10;3.00;;;1.60;;
67979;SDS011;54760;47.490;19.030;2024-03-17T10:17:37;3.42;;;1.60;;
67979;SDS011;54760;47.490;19.030;2024-03-17T10:23:04;2.75;;;1.40;;
67979;SDS011;54760;47.490;19.030;2024-03-17T10:25:32;5.30;;;1.40;;
67979;SDS011;54760;47.490;19.030;2024-03-17T10:27:59;3.60;;;1.48;;
67979;SDS011;54760;47.490;19.030;2024-03-17T10:30:26;3.22;;;1.40;;
67979;SDS011;54760;47.490;19.030;2024-03-17T10:33:01;4.32;;;1.48;;
67979;SDS011;54760;47.490;19.030;2024-03-17T10:35:30;3.47;;;1.60;;
67979;SDS011;54760;47.490;19.030;2024-03-17T10:38:01;2.95;;;1.40;;
67979;SDS011;54760;47.490;19.030;2024-03-17T10:40:32;3.25;;;1.42;;
67979;SDS011;54760;47.490;19.030;2024-03-17T10:43:00;2.78;;;1.45;;
67979;SDS011;54760;47.490;19.030;2024-03-17T10:45:26;2.95;;;1.48;;
67979;SDS011;54760;47.490;19.030;2024-03-17T10:47:55;3.15;;;1.37;;
67979;SDS011;54760;47.490;19.030;2024-03-17T10:50:25;3.92;;;1.50;;
67979;SDS011;54760;47.490;19.030;2024-03-17T10:52:55;3.03;;;1.27;;
67979;SDS011;54760;47.490;19.030;2024-03-17T10:55:24;3.15;;;1.60;;
67979;SDS011;54760;47.490;19.030;2024-03-17T10:57:51;2.65;;;1.37;;
67979;SDS011;54760;47.490;19.030;2024-03-17T11:00:21;2.92;;;1.50;;
67979;SDS011;54760;47.490;19.030;2024-03-17T11:02:48;3.80;;;1.77;;
67979;SDS011;54760;47.490;19.030;2024-03-17T11:05:22;6.25;;;2.10;;
67979;SDS011;54760;47.490;19.030;2024-03-17T11:07:51;4.60;;;1.60;;
67979;SDS011;54760;47.490;19.030;2024-03-17T11:12:49;2.85;;;1.40;;
67979;SDS011;54760;47.490;19.030;2024-03-17T11:17:48;2.05;;;1.48;;
67979;SDS011;54760;47.490;19.030;2024-03-17T11:20:23;3.20;;;1.40;;
67979;SDS011;54760;47.490;19.030;2024-03-17T11:22:50;3.17;;;1.90;;
67979;SDS011;54760;47.490;19.030;2024-03-17T11:27:58;4.25;;;1.50;;
67979;SDS011;54760;47.490;19.030;2024-03-17T11:38:54;4.93;;;1.37;;
67979;SDS011;54760;47.490;19.030;2024-03-17T11:41:30;4.90;;;1.77;;
67979;SDS011;54760;47.490;19.030;2024-03-17T11:49:26;2.70;;;1.60;;
67979;SDS011;54760;47.490;19.030;2024-03-17T11:51:54;4.32;;;1.70;;
67979;SDS011;54760;47.490;19.030;2024-03-17T11:54:22;5.18;;;1.55;;
67979;SDS011;54760;47.490;19.030;2024-03-17T11:56:50;3.72;;;1.60;;
67979;SDS011;54760;47.490;19.030;2024-03-17T11:59:17;4.15;;;1.60;;
67979;SDS011;54760;47.490;19.030;2024-03-17T12:01:44;6.30;;;1.50;;
67979;SDS011;54760;47.490;19.030;2024-03-17T12:04:14;3.87;;;1.62;;
67979;SDS011;54760;47.490;19.030;2024-03-17T12:06:44;2.17;;;1.33;;
67979;SDS011;54760;47.490;19.030;2024-03-17T12:12:11;4.37;;;1.50;;
67979;SDS011;54760;47.490;19.030;2024-03-17T12:14:36;4.70;;;1.42;;
67979;SDS011;54760;47.490;19.030;2024-03-17T12:17:04;4.97;;;1.37;;
67979;SDS011;54760;47.490;19.030;2024-03-17T12:19:34;4.05;;;1.35;;
67979;SDS011;54760;47.490;19.030;2024-03-17T12:22:00;3.42;;;1.33;;
67979;SDS011;54760;47.490;19.030;2024-03-17T12:24:28;4.68;;;1.52;;
67979;SDS011;54760;47.490;19.030;2024-03-17T12:26:55;3.40;;;1.23;;
67979;SDS011;54760;47.490;19.030;2024-03-17T12:29:37;3.58;;;1.55;;
67979;SDS011;54760;47.490;19.030;2024-03-17T12:32:11;3.22;;;1.40;;
67979;SDS011;54760;47.490;19.030;2024-03-17T12:34:38;3.30;;;1.42;;
67979;SDS011;54760;47.490;19.030;2024-03-17T12:37:03;3.08;;;1.20;;
67979;SDS011;54760;47.490;19.030;2024-03-17T12:39:30;2.83;;;1.40;;
67979;SDS011;54760;47.490;19.030;2024-03-17T12:42:06;5.50;;;1.30;;
67979;SDS011;54760;47.490;19.030;2024-03-17T12:44:49;2.05;;;1.23;;
67979;SDS011;54760;47.490;19.030;2024-03-17T12:49:49;4.93;;;2.20;;
67979;SDS011;54760;47.490;19.030;2024-03-17T12:54:57;3.83;;;1.10;;
67979;SDS011;54760;47.490;19.030;2024-03-17T12:57:43;3.28;;;1.20;;
67979;SDS011;54760;47.490;19.030;2024-03-17T13:00:27;4.05;;;1.37;;
67979;SDS011;54760;47.490;19.030;2024-03-17T13:03:01;2.58;;;1.20;;
67979;SDS011;54760;47.490;19.030;2024-03-17T13:05:28;2.95;;;1.12;;
67979;SDS011;54760;47.490;19.030;2024-03-17T13:07:54;3.60;;;1.15;;
67979;SDS011;54760;47.490;19.030;2024-03-17T13:10:24;3.30;;;1.40;;
67979;SDS011;54760;47.490;19.030;2024-03-17T13:13:00;2.40;;;1.20;;
67979;SDS011;54760;47.490;19.030;2024-03-17T13:15:30;2.30;;;1.05;;
67979;SDS011;54760;47.490;19.030;2024-03-17T13:18:00;1.80;;;0.90;;
67979;SDS011;54760;47.490;19.030;2024-03-17T13:20:26;3.87;;;1.10;;
67979;SDS011;54760;47.490;19.030;2024-03-17T13:22:51;4.30;;;1.37;;
67979;SDS011;54760;47.490;19.030;2024-03-17T13:25:18;4.72;;;1.20;;
67979;SDS011;54760;47.490;19.030;2024-03-17T13:27:46;4.65;;;1.30;;
67979;SDS011;54760;47.490;19.030;2024-03-17T13:30:13;2.50;;;1.25;;
67979;SDS011;54760;47.490;19.030;2024-03-17T13:32:40;2.80;;;1.42;;
67979;SDS011;54760;47.490;19.030;2024-03-17T13:35:13;2.00;;;1.27;;
67979;SDS011;54760;47.490;19.030;2024-03-17T13:37:40;3.12;;;1.20;;
67979;SDS011;54760;47.490;19.030;2024-03-17T13:40:05;4.15;;;1.35;;
67979;SDS011;54760;47.490;19.030;2024-03-17T13:42:32;3.60;;;1.20;;
67979;SDS011;54760;47.490;19.030;2024-03-17T13:44:57;2.10;;;1.20;;
67979;SDS011;54760;47.490;19.030;2024-03-17T13:47:23;4.60;;;1.10;;
67979;SDS011;54760;47.490;19.030;2024-03-17T13:49:48;3.15;;;1.27;;
67979;SDS011;54760;47.490;19.030;2024-03-17T13:52:13;3.47;;;1.70;;
67979;SDS011;54760;47.490;19.030;2024-03-17T13:54:39;4.07;;;1.25;;
67979;SDS011;54760;47.490;19.030;2024-03-17T13:57:04;3.10;;;1.25;;
67979;SDS011;54760;47.490;19.030;2024-03-17T13:59:30;3.12;;;1.50;;
67979;SDS011;54760;47.490;19.030;2024-03-17T14:01:57;2.65;;;1.40;;
67979;SDS011;54760;47.490;19.030;2024-03-17T14:04:22;4.78;;;1.50;;
67979;SDS011;54760;47.490;19.030;2024-03-17T14:06:48;4.30;;;1.40;;
67979;SDS011;54760;47.490;19.030;2024-03-17T14:09:16;7.30;;;1.48;;
67979;SDS011;54760;47.490;19.030;2024-03-17T14:11:45;5.15;;;1.65;;
67979;SDS011;54760;47.490;19.030;2024-03-17T14:14:11;4.07;;;1.70;;
67979;SDS011;54760;47.490;19.030;2024-03-17T14:16:37;3.05;;;1.20;;
67979;SDS011;54760;47.490;19.030;2024-03-17T14:19:02;4.43;;;1.50;;
67979;SDS011;54760;47.490;19.030;2024-03-17T14:21:28;2.90;;;1.23;;
67979;SDS011;54760;47.490;19.030;2024-03-17T14:23:54;2.78;;;1.50;;
67979;SDS011;54760;47.490;19.030;2024-03-17T14:26:20;4.43;;;1.30;;
67979;SDS011;54760;47.490;19.030;2024-03-17T14:28:46;3.75;;;1.40;;
67979;SDS011;54760;47.490;19.030;2024-03-17T14:31:12;4.93;;;1.55;;
67979;SDS011;54760;47.490;19.030;2024-03-17T14:33:37;4.87;;;1.52;;
67979;SDS011;54760;47.490;19.030;2024-03-17T14:36:03;3.20;;;1.40;;
67979;SDS011;54760;47.490;19.030;2024-03-17T14:38:29;3.62;;;1.40;;
67979;SDS011;54760;47.490;19.030;2024-03-17T14:40:55;3.45;;;1.92;;
67979;SDS011;54760;47.490;19.030;2024-03-17T14:43:20;4.35;;;1.60;;
67979;SDS011;54760;47.490;19.030;2024-03-17T14:45:46;3.78;;;1.55;;
67979;SDS011;54760;47.490;19.030;2024-03-17T14:48:11;4.15;;;1.48;;
67979;SDS011;54760;47.490;19.030;2024-03-17T14:50:38;5.90;;;1.50;;
67979;SDS011;54760;47.490;19.030;2024-03-17T14:53:04;2.58;;;1.15;;
67979;SDS011;54760;47.490;19.030;2024-03-17T14:55:30;2.60;;;1.25;;
67979;SDS011;54760;47.490;19.030;2024-03-17T14:57:56;3.45;;;1.30;;
67979;SDS011;54760;47.490;19.030;2024-03-17T15:00:22;5.62;;;1.30;;
67979;SDS011;54760;47.490;19.030;2024-03-17T15:02:50;4.25;;;1.30;;
67979;SDS011;54760;47.490;19.030;2024-03-17T15:05:16;3.00;;;1.30;;
67979;SDS011;54760;47.490;19.030;2024-03-17T15:07:46;2.83;;;1.33;;
67979;SDS011;54760;47.490;19.030;2024-03-17T15:10:13;6.22;;;1.75;;